sensor_id;sensor_type;location;lat;lon;timestamp;P1;durP1;ratioP1;P2;durP2;ratioP2
44606;SDS011;30315;46.072;14.474;2022-07-29T00:00:00;5.63;;;5.30;;
44606;SDS011;30315;46.072;14.474;2022-07-29T00:02:30;5.97;;;5.47;;
44606;SDS011;30315;46.072;14.474;2022-07-29T00:04:58;5.38;;;4.90;;
44606;SDS011;30315;46.072;14.474;2022-07-29T00:07:25;6.13;;;5.63;;
44606;SDS011;30315;46.072;14.474;2022-07-29T00:09:52;5.45;;;5.03;;
44606;SDS011;30315;46.072;14.474;2022-07-29T00:12:20;5.82;;;5.32;;
44606;SDS011;30315;46.072;14.474;2022-07-29T00:14:55;5.55;;;5.05;;
44606;SDS011;30315;46.072;14.474;2022-07-29T00:17:25;5.80;;;5.28;;
44606;SDS011;30315;46.072;14.474;2022-07-29T00:19:52;6.78;;;5.22;;
44606;SDS011;30315;46.072;14.474;2022-07-29T00:22:19;5.30;;;4.90;;
44606;SDS011;30315;46.072;14.474;2022-07-29T00:24:47;5.47;;;4.97;;
44606;SDS011;30315;46.072;14.474;2022-07-29T00:27:15;5.50;;;5.10;;
44606;SDS011;30315;46.072;14.474;2022-07-29T00:29:42;5.55;;;5.05;;
44606;SDS011;30315;46.072;14.474;2022-07-29T00:32:09;5.70;;;5.30;;
44606;SDS011;30315;46.072;14.474;2022-07-29T00:34:36;5.78;;;5.20;;
44606;SDS011;30315;46.072;14.474;2022-07-29T00:37:22;5.18;;;4.88;;
44606;SDS011;30315;46.072;14.474;2022-07-29T00:39:49;5.43;;;5.00;;
44606;SDS011;30315;46.072;14.474;2022-07-29T00:42:16;5.68;;;5.07;;
44606;SDS011;30315;46.072;14.474;2022-07-29T00:44:43;6.25;;;5.18;;
44606;SDS011;30315;46.072;14.474;2022-07-29T00:47:11;5.53;;;5.15;;
44606;SDS011;30315;46.072;14.474;2022-07-29T00:49:39;5.47;;;5.00;;
44606;SDS011;30315;46.072;14.474;2022-07-29T00:52:07;5.20;;;4.80;;
44606;SDS011;30315;46.072;14.474;2022-07-29T00:54:35;5.50;;;5.05;;
44606;SDS011;30315;46.072;14.474;2022-07-29T00:57:10;6.18;;;4.90;;
44606;SDS011;30315;46.072;14.474;2022-07-29T00:59:38;5.53;;;4.82;;
44606;SDS011;30315;46.072;14.474;2022-07-29T01:02:05;5.63;;;5.13;;
44606;SDS011;30315;46.072;14.474;2022-07-29T01:04:32;5.22;;;4.82;;
44606;SDS011;30315;46.072;14.474;2022-07-29T01:07:00;4.90;;;4.50;;
44606;SDS011;30315;46.072;14.474;2022-07-29T01:09:28;5.60;;;5.10;;
44606;SDS011;30315;46.072;14.474;2022-07-29T01:12:15;4.93;;;4.50;;
44606;SDS011;30315;46.072;14.474;2022-07-29T01:14:45;5.57;;;5.18;;
44606;SDS011;30315;46.072;14.474;2022-07-29T01:17:15;5.25;;;4.90;;
44606;SDS011;30315;46.072;14.474;2022-07-29T01:31:19;5.32;;;4.93;;
44606;SDS011;30315;46.072;14.474;2022-07-29T01:33:57;5.32;;;4.88;;
44606;SDS011;30315;46.072;14.474;2022-07-29T01:39:14;5.80;;;5.22;;
44606;SDS011;30315;46.072;14.474;2022-07-29T01:47:49;5.47;;;5.07;;
44606;SDS011;30315;46.072;14.474;2022-07-29T01:50:31;5.43;;;5.13;;
44606;SDS011;30315;46.072;14.474;2022-07-29T01:53:05;5.75;;;5.25;;
44606;SDS011;30315;46.072;14.474;2022-07-29T01:55:36;6.10;;;5.53;;
44606;SDS011;30315;46.072;14.474;2022-07-29T01:58:06;5.72;;;5.22;;
44606;SDS011;30315;46.072;14.474;2022-07-29T02:00:35;5.75;;;5.32;;
44606;SDS011;30315;46.072;14.474;2022-07-29T02:03:05;6.13;;;5.67;;
44606;SDS011;30315;46.072;14.474;2022-07-29T02:05:35;6.00;;;5.60;;
44606;SDS011;30315;46.072;14.474;2022-07-29T02:10:33;5.90;;;5.40;;
44606;SDS011;30315;46.072;14.474;2022-07-29T02:13:26;5.30;;;4.90;;
44606;SDS011;30315;46.072;14.474;2022-07-29T02:15:55;6.13;;;5.63;;
44606;SDS011;30315;46.072;14.474;2022-07-29T02:18:25;5.95;;;5.40;;
44606;SDS011;30315;46.072;14.474;2022-07-29T02:20:55;5.78;;;5.38;;
44606;SDS011;30315;46.072;14.474;2022-07-29T02:25:56;6.70;;;5.97;;
44606;SDS011;30315;46.072;14.474;2022-07-29T02:28:26;5.82;;;5.32;;
44606;SDS011;30315;46.072;14.474;2022-07-29T02:30:57;5.70;;;5.30;;
44606;SDS011;30315;46.072;14.474;2022-07-29T02:33:27;6.85;;;6.25;;
44606;SDS011;30315;46.072;14.474;2022-07-29T02:38:25;7.35;;;6.10;;
44606;SDS011;30315;46.072;14.474;2022-07-29T02:41:16;6.53;;;5.82;;
44606;SDS011;30315;46.072;14.474;2022-07-29T02:43:47;6.22;;;5.80;;
44606;SDS011;30315;46.072;14.474;2022-07-29T02:46:21;6.93;;;5.65;;
44606;SDS011;30315;46.072;14.474;2022-07-29T02:48:56;6.22;;;5.78;;
44606;SDS011;30315;46.072;14.474;2022-07-29T02:52:00;8.32;;;6.43;;
44606;SDS011;30315;46.072;14.474;2022-07-29T02:54:39;6.22;;;5.63;;
44606;SDS011;30315;46.072;14.474;2022-07-29T02:57:21;6.82;;;5.88;;
44606;SDS011;30315;46.072;14.474;2022-07-29T02:59:57;7.65;;;5.57;;
44606;SDS011;30315;46.072;14.474;2022-07-29T03:02:31;5.82;;;5.43;;
44606;SDS011;30315;46.072;14.474;2022-07-29T03:05:02;6.10;;;5.50;;
44606;SDS011;30315;46.072;14.474;2022-07-29T03:07:30;6.47;;;5.53;;
44606;SDS011;30315;46.072;14.474;2022-07-29T03:09:58;5.90;;;5.50;;
44606;SDS011;30315;46.072;14.474;2022-07-29T03:12:26;5.80;;;5.40;;
44606;SDS011;30315;46.072;14.474;2022-07-29T03:14:55;6.85;;;5.60;;
44606;SDS011;30315;46.072;14.474;2022-07-29T03:17:23;5.35;;;4.90;;
44606;SDS011;30315;46.072;14.474;2022-07-29T03:19:50;5.70;;;5.30;;
44606;SDS011;30315;46.072;14.474;2022-07-29T03:22:17;5.90;;;5.50;;
44606;SDS011;30315;46.072;14.474;2022-07-29T03:24:45;6.15;;;5.75;;
44606;SDS011;30315;46.072;14.474;2022-07-29T03:27:12;6.28;;;5.88;;
44606;SDS011;30315;46.072;14.474;2022-07-29T03:29:39;5.85;;;5.35;;
44606;SDS011;30315;46.072;14.474;2022-07-29T03:32:15;7.03;;;5.97;;
44606;SDS011;30315;46.072;14.474;2022-07-29T03:34:49;6.55;;;5.95;;
44606;SDS011;30315;46.072;14.474;2022-07-29T03:37:16;6.32;;;5.47;;
44606;SDS011;30315;46.072;14.474;2022-07-29T03:39:43;6.43;;;5.70;;
44606;SDS011;30315;46.072;14.474;2022-07-29T03:42:13;6.80;;;5.57;;
44606;SDS011;30315;46.072;14.474;2022-07-29T03:44:42;5.80;;;5.35;;
44606;SDS011;30315;46.072;14.474;2022-07-29T03:47:14;6.07;;;5.57;;
44606;SDS011;30315;46.072;14.474;2022-07-29T03:49:46;6.22;;;5.63;;
44606;SDS011;30315;46.072;14.474;2022-07-29T03:52:16;6.07;;;5.47;;
44606;SDS011;30315;46.072;14.474;2022-07-29T03:54:44;6.25;;;5.68;;
44606;SDS011;30315;46.072;14.474;2022-07-29T03:57:11;6.10;;;5.68;;
44606;SDS011;30315;46.072;14.474;2022-07-29T03:59:39;6.00;;;5.45;;
44606;SDS011;30315;46.072;14.474;2022-07-29T04:02:08;6.80;;;6.30;;
44606;SDS011;30315;46.072;14.474;2022-07-29T04:04:37;5.95;;;5.47;;
44606;SDS011;30315;46.072;14.474;2022-07-29T04:07:04;6.32;;;5.82;;
44606;SDS011;30315;46.072;14.474;2022-07-29T04:09:31;6.55;;;6.05;;
44606;SDS011;30315;46.072;14.474;2022-07-29T04:11:58;7.65;;;6.85;;
44606;SDS011;30315;46.072;14.474;2022-07-29T04:14:30;7.70;;;6.80;;
44606;SDS011;30315;46.072;14.474;2022-07-29T04:16:58;7.53;;;6.80;;
44606;SDS011;30315;46.072;14.474;2022-07-29T04:19:25;6.65;;;6.13;;
44606;SDS011;30315;46.072;14.474;2022-07-29T04:21:52;6.20;;;5.68;;
44606;SDS011;30315;46.072;14.474;2022-07-29T04:24:19;6.75;;;5.93;;
44606;SDS011;30315;46.072;14.474;2022-07-29T04:26:46;6.30;;;5.78;;
44606;SDS011;30315;46.072;14.474;2022-07-29T04:29:13;6.53;;;6.07;;
44606;SDS011;30315;46.072;14.474;2022-07-29T04:31:41;6.20;;;5.45;;
44606;SDS011;30315;46.072;14.474;2022-07-29T04:34:09;7.10;;;6.43;;
44606;SDS011;30315;46.072;14.474;2022-07-29T04:36:36;7.13;;;6.03;;
44606;SDS011;30315;46.072;14.474;2022-07-29T04:39:04;6.25;;;5.75;;
44606;SDS011;30315;46.072;14.474;2022-07-29T04:41:31;6.68;;;6.18;;
44606;SDS011;30315;46.072;14.474;2022-07-29T04:44:00;6.80;;;6.20;;
44606;SDS011;30315;46.072;14.474;2022-07-29T04:46:37;6.85;;;6.25;;
44606;SDS011;30315;46.072;14.474;2022-07-29T04:49:04;6.28;;;5.78;;
44606;SDS011;30315;46.072;14.474;2022-07-29T04:51:32;7.07;;;6.22;;
44606;SDS011;30315;46.072;14.474;2022-07-29T04:53:58;7.68;;;6.93;;
44606;SDS011;30315;46.072;14.474;2022-07-29T04:56:26;7.38;;;6.20;;
44606;SDS011;30315;46.072;14.474;2022-07-29T04:58:53;6.80;;;6.10;;
44606;SDS011;30315;46.072;14.474;2022-07-29T05:01:20;7.45;;;6.13;;
44606;SDS011;30315;46.072;14.474;2022-07-29T05:03:47;6.35;;;5.75;;
44606;SDS011;30315;46.072;14.474;2022-07-29T05:06:14;7.05;;;6.28;;
44606;SDS011;30315;46.072;14.474;2022-07-29T05:08:41;8.48;;;6.95;;
44606;SDS011;30315;46.072;14.474;2022-07-29T05:11:08;8.48;;;6.50;;
44606;SDS011;30315;46.072;14.474;2022-07-29T05:13:38;6.90;;;6.20;;
44606;SDS011;30315;46.072;14.474;2022-07-29T05:16:11;7.30;;;6.60;;
44606;SDS011;30315;46.072;14.474;2022-07-29T05:18:39;6.63;;;6.13;;
44606;SDS011;30315;46.072;14.474;2022-07-29T05:21:06;7.72;;;6.30;;
44606;SDS011;30315;46.072;14.474;2022-07-29T05:23:33;6.70;;;6.10;;
44606;SDS011;30315;46.072;14.474;2022-07-29T05:26:00;7.85;;;7.20;;
44606;SDS011;30315;46.072;14.474;2022-07-29T05:28:27;9.10;;;6.20;;
44606;SDS011;30315;46.072;14.474;2022-07-29T05:30:54;7.03;;;6.38;;
44606;SDS011;30315;46.072;14.474;2022-07-29T05:33:22;7.20;;;6.50;;
44606;SDS011;30315;46.072;14.474;2022-07-29T05:36:03;7.00;;;6.15;;
44606;SDS011;30315;46.072;14.474;2022-07-29T05:38:33;7.57;;;6.38;;
44606;SDS011;30315;46.072;14.474;2022-07-29T05:41:01;8.63;;;6.80;;
44606;SDS011;30315;46.072;14.474;2022-07-29T05:43:28;7.32;;;6.68;;
44606;SDS011;30315;46.072;14.474;2022-07-29T05:45:56;6.88;;;6.18;;
44606;SDS011;30315;46.072;14.474;2022-07-29T05:48:23;11.85;;;6.75;;
44606;SDS011;30315;46.072;14.474;2022-07-29T05:50:50;8.32;;;6.60;;
44606;SDS011;30315;46.072;14.474;2022-07-29T05:53:17;9.68;;;7.43;;
44606;SDS011;30315;46.072;14.474;2022-07-29T05:55:49;7.05;;;6.35;;
44606;SDS011;30315;46.072;14.474;2022-07-29T05:58:16;6.80;;;6.22;;
44606;SDS011;30315;46.072;14.474;2022-07-29T06:00:43;8.02;;;6.35;;
44606;SDS011;30315;46.072;14.474;2022-07-29T06:03:10;7.85;;;6.95;;
44606;SDS011;30315;46.072;14.474;2022-07-29T06:05:37;7.10;;;6.40;;
44606;SDS011;30315;46.072;14.474;2022-07-29T06:08:05;7.20;;;6.20;;
44606;SDS011;30315;46.072;14.474;2022-07-29T06:10:36;9.00;;;6.27;;
44606;SDS011;30315;46.072;14.474;2022-07-29T06:13:03;10.38;;;6.13;;
44606;SDS011;30315;46.072;14.474;2022-07-29T06:15:30;6.95;;;6.40;;
44606;SDS011;30315;46.072;14.474;2022-07-29T06:17:57;7.53;;;6.15;;
44606;SDS011;30315;46.072;14.474;2022-07-29T06:20:30;7.15;;;6.65;;
44606;SDS011;30315;46.072;14.474;2022-07-29T06:22:58;7.85;;;6.55;;
44606;SDS011;30315;46.072;14.474;2022-07-29T06:25:26;8.38;;;6.70;;
44606;SDS011;30315;46.072;14.474;2022-07-29T06:27:56;7.25;;;6.35;;
44606;SDS011;30315;46.072;14.474;2022-07-29T06:30:24;7.60;;;6.78;;
44606;SDS011;30315;46.072;14.474;2022-07-29T06:32:51;6.82;;;6.22;;
44606;SDS011;30315;46.072;14.474;2022-07-29T06:35:18;8.57;;;6.70;;
44606;SDS011;30315;46.072;14.474;2022-07-29T06:38:05;8.18;;;6.47;;
44606;SDS011;30315;46.072;14.474;2022-07-29T06:40:52;7.18;;;6.68;;
44606;SDS011;30315;46.072;14.474;2022-07-29T06:46:00;9.88;;;5.80;;
44606;SDS011;30315;46.072;14.474;2022-07-29T06:48:29;6.75;;;6.13;;
44606;SDS011;30315;46.072;14.474;2022-07-29T06:50:56;6.25;;;5.85;;
44606;SDS011;30315;46.072;14.474;2022-07-29T06:53:23;6.32;;;5.82;;
44606;SDS011;30315;46.072;14.474;2022-07-29T06:55:50;6.05;;;5.65;;
44606;SDS011;30315;46.072;14.474;2022-07-29T06:58:17;6.18;;;5.78;;
44606;SDS011;30315;46.072;14.474;2022-07-29T07:00:54;6.22;;;5.75;;
44606;SDS011;30315;46.072;14.474;2022-07-29T07:03:22;6.97;;;6.28;;
44606;SDS011;30315;46.072;14.474;2022-07-29T07:05:52;6.22;;;5.70;;
44606;SDS011;30315;46.072;14.474;2022-07-29T07:08:20;6.20;;;5.70;;
44606;SDS011;30315;46.072;14.474;2022-07-29T07:10:48;4.90;;;4.60;;
44606;SDS011;30315;46.072;14.474;2022-07-29T07:13:15;5.60;;;5.10;;
44606;SDS011;30315;46.072;14.474;2022-07-29T07:15:44;6.05;;;5.53;;
44606;SDS011;30315;46.072;14.474;2022-07-29T07:18:11;5.32;;;5.03;;
44606;SDS011;30315;46.072;14.474;2022-07-29T07:20:38;5.65;;;5.15;;
44606;SDS011;30315;46.072;14.474;2022-07-29T07:23:05;5.63;;;5.22;;
44606;SDS011;30315;46.072;14.474;2022-07-29T07:25:33;5.53;;;5.03;;
44606;SDS011;30315;46.072;14.474;2022-07-29T07:28:00;6.28;;;4.75;;
44606;SDS011;30315;46.072;14.474;2022-07-29T07:30:27;5.53;;;5.13;;
44606;SDS011;30315;46.072;14.474;2022-07-29T07:32:54;5.65;;;5.15;;
44606;SDS011;30315;46.072;14.474;2022-07-29T07:35:21;5.65;;;5.15;;
44606;SDS011;30315;46.072;14.474;2022-07-29T07:37:48;5.60;;;5.10;;
44606;SDS011;30315;46.072;14.474;2022-07-29T07:40:15;6.25;;;5.05;;
44606;SDS011;30315;46.072;14.474;2022-07-29T07:42:44;7.68;;;4.85;;
44606;SDS011;30315;46.072;14.474;2022-07-29T07:45:11;5.55;;;4.32;;
44606;SDS011;30315;46.072;14.474;2022-07-29T07:47:42;7.53;;;5.68;;
44606;SDS011;30315;46.072;14.474;2022-07-29T07:50:09;9.82;;;4.85;;
44606;SDS011;30315;46.072;14.474;2022-07-29T07:52:51;13.73;;;4.75;;
44606;SDS011;30315;46.072;14.474;2022-07-29T07:55:20;9.02;;;4.38;;
44606;SDS011;30315;46.072;14.474;2022-07-29T07:58:18;7.32;;;4.68;;
44606;SDS011;30315;46.072;14.474;2022-07-29T08:00:45;7.53;;;4.32;;
44606;SDS011;30315;46.072;14.474;2022-07-29T08:03:13;5.18;;;4.28;;
44606;SDS011;30315;46.072;14.474;2022-07-29T08:05:42;6.53;;;5.05;;
44606;SDS011;30315;46.072;14.474;2022-07-29T08:08:09;6.32;;;4.40;;
44606;SDS011;30315;46.072;14.474;2022-07-29T08:10:36;5.00;;;4.60;;
44606;SDS011;30315;46.072;14.474;2022-07-29T08:13:19;7.57;;;4.55;;
44606;SDS011;30315;46.072;14.474;2022-07-29T08:15:47;5.10;;;4.60;;
44606;SDS011;30315;46.072;14.474;2022-07-29T08:18:24;7.60;;;5.10;;
44606;SDS011;30315;46.072;14.474;2022-07-29T08:20:51;8.02;;;4.75;;
44606;SDS011;30315;46.072;14.474;2022-07-29T08:23:18;5.80;;;4.80;;
44606;SDS011;30315;46.072;14.474;2022-07-29T08:25:47;5.25;;;4.65;;
44606;SDS011;30315;46.072;14.474;2022-07-29T08:28:16;5.22;;;4.80;;
44606;SDS011;30315;46.072;14.474;2022-07-29T08:30:43;7.05;;;5.55;;
44606;SDS011;30315;46.072;14.474;2022-07-29T08:33:10;5.60;;;4.20;;
44606;SDS011;30315;46.072;14.474;2022-07-29T08:35:38;7.65;;;4.07;;
44606;SDS011;30315;46.072;14.474;2022-07-29T08:38:05;4.80;;;4.40;;
44606;SDS011;30315;46.072;14.474;2022-07-29T08:40:32;5.68;;;4.05;;
44606;SDS011;30315;46.072;14.474;2022-07-29T08:43:04;4.97;;;4.68;;
44606;SDS011;30315;46.072;14.474;2022-07-29T08:48:14;4.18;;;3.88;;
44606;SDS011;30315;46.072;14.474;2022-07-29T08:50:42;6.30;;;4.35;;
44606;SDS011;30315;46.072;14.474;2022-07-29T08:53:12;4.82;;;4.43;;
44606;SDS011;30315;46.072;14.474;2022-07-29T08:58:13;3.88;;;3.58;;
44606;SDS011;30315;46.072;14.474;2022-07-29T09:00:43;5.10;;;4.10;;
44606;SDS011;30315;46.072;14.474;2022-07-29T09:03:15;4.30;;;3.90;;
44606;SDS011;30315;46.072;14.474;2022-07-29T09:05:44;4.22;;;3.92;;
44606;SDS011;30315;46.072;14.474;2022-07-29T09:08:14;7.00;;;3.85;;
44606;SDS011;30315;46.072;14.474;2022-07-29T09:10:41;4.38;;;4.07;;
44606;SDS011;30315;46.072;14.474;2022-07-29T09:13:09;5.00;;;4.13;;
44606;SDS011;30315;46.072;14.474;2022-07-29T09:15:36;5.45;;;4.13;;
44606;SDS011;30315;46.072;14.474;2022-07-29T09:18:03;4.43;;;4.10;;
44606;SDS011;30315;46.072;14.474;2022-07-29T09:20:30;4.15;;;3.85;;
44606;SDS011;30315;46.072;14.474;2022-07-29T09:23:15;6.20;;;4.00;;
44606;SDS011;30315;46.072;14.474;2022-07-29T09:25:50;9.23;;;4.22;;
44606;SDS011;30315;46.072;14.474;2022-07-29T09:28:17;9.05;;;4.15;;
44606;SDS011;30315;46.072;14.474;2022-07-29T09:30:54;5.65;;;3.80;;
44606;SDS011;30315;46.072;14.474;2022-07-29T09:33:22;5.93;;;4.05;;
44606;SDS011;30315;46.072;14.474;2022-07-29T09:36:07;3.78;;;3.58;;
44606;SDS011;30315;46.072;14.474;2022-07-29T09:38:36;3.47;;;3.22;;
44606;SDS011;30315;46.072;14.474;2022-07-29T09:41:04;4.32;;;4.00;;
44606;SDS011;30315;46.072;14.474;2022-07-29T09:43:34;4.55;;;4.15;;
44606;SDS011;30315;46.072;14.474;2022-07-29T09:46:11;4.22;;;3.83;;
44606;SDS011;30315;46.072;14.474;2022-07-29T09:48:38;4.40;;;4.10;;
44606;SDS011;30315;46.072;14.474;2022-07-29T09:51:15;4.43;;;4.13;;
44606;SDS011;30315;46.072;14.474;2022-07-29T09:53:53;4.57;;;4.07;;
44606;SDS011;30315;46.072;14.474;2022-07-29T09:56:28;4.13;;;3.83;;
44606;SDS011;30315;46.072;14.474;2022-07-29T09:59:07;6.07;;;4.20;;
44606;SDS011;30315;46.072;14.474;2022-07-29T10:01:35;4.95;;;4.45;;
44606;SDS011;30315;46.072;14.474;2022-07-29T10:04:02;4.80;;;4.35;;
44606;SDS011;30315;46.072;14.474;2022-07-29T10:06:30;4.68;;;3.42;;
44606;SDS011;30315;46.072;14.474;2022-07-29T10:09:09;4.13;;;3.83;;
44606;SDS011;30315;46.072;14.474;2022-07-29T10:11:37;4.65;;;4.28;;
44606;SDS011;30315;46.072;14.474;2022-07-29T10:14:15;4.30;;;3.90;;
44606;SDS011;30315;46.072;14.474;2022-07-29T10:16:42;3.90;;;3.60;;
44606;SDS011;30315;46.072;14.474;2022-07-29T10:19:09;4.45;;;4.15;;
44606;SDS011;30315;46.072;14.474;2022-07-29T10:21:36;4.47;;;4.13;;
44606;SDS011;30315;46.072;14.474;2022-07-29T10:24:05;4.22;;;4.03;;
44606;SDS011;30315;46.072;14.474;2022-07-29T10:26:40;4.97;;;4.18;;
44606;SDS011;30315;46.072;14.474;2022-07-29T10:29:08;4.88;;;4.28;;
44606;SDS011;30315;46.072;14.474;2022-07-29T10:31:44;4.45;;;4.05;;
44606;SDS011;30315;46.072;14.474;2022-07-29T10:34:25;4.50;;;4.20;;
44606;SDS011;30315;46.072;14.474;2022-07-29T10:43:02;4.40;;;4.00;;
44606;SDS011;30315;46.072;14.474;2022-07-29T10:45:48;4.18;;;3.88;;
44606;SDS011;30315;46.072;14.474;2022-07-29T10:48:23;4.28;;;3.88;;
44606;SDS011;30315;46.072;14.474;2022-07-29T10:50:54;4.60;;;4.30;;
44606;SDS011;30315;46.072;14.474;2022-07-29T10:53:23;4.40;;;4.10;;
44606;SDS011;30315;46.072;14.474;2022-07-29T10:58:19;4.75;;;3.47;;
44606;SDS011;30315;46.072;14.474;2022-07-29T11:00:52;3.67;;;3.47;;
44606;SDS011;30315;46.072;14.474;2022-07-29T11:06:17;3.83;;;3.63;;
44606;SDS011;30315;46.072;14.474;2022-07-29T11:09:15;4.53;;;4.07;;
44606;SDS011;30315;46.072;14.474;2022-07-29T11:12:03;5.35;;;3.63;;
44606;SDS011;30315;46.072;14.474;2022-07-29T11:17:18;3.75;;;3.50;;
44606;SDS011;30315;46.072;14.474;2022-07-29T11:19:46;3.78;;;3.47;;
44606;SDS011;30315;46.072;14.474;2022-07-29T11:22:34;3.92;;;3.42;;
44606;SDS011;30315;46.072;14.474;2022-07-29T11:25:14;3.80;;;3.60;;
44606;SDS011;30315;46.072;14.474;2022-07-29T11:27:44;3.38;;;3.17;;
44606;SDS011;30315;46.072;14.474;2022-07-29T11:30:11;3.47;;;3.28;;
44606;SDS011;30315;46.072;14.474;2022-07-29T11:32:40;3.22;;;2.92;;
44606;SDS011;30315;46.072;14.474;2022-07-29T11:35:20;3.53;;;3.22;;
44606;SDS011;30315;46.072;14.474;2022-07-29T11:38:24;3.40;;;3.10;;
44606;SDS011;30315;46.072;14.474;2022-07-29T11:43:46;3.30;;;3.10;;
44606;SDS011;30315;46.072;14.474;2022-07-29T11:46:16;3.53;;;3.33;;
44606;SDS011;30315;46.072;14.474;2022-07-29T11:49:04;3.80;;;3.50;;
44606;SDS011;30315;46.072;14.474;2022-07-29T11:51:35;3.35;;;2.80;;
44606;SDS011;30315;46.072;14.474;2022-07-29T11:54:13;3.72;;;3.50;;
44606;SDS011;30315;46.072;14.474;2022-07-29T11:56:53;4.15;;;3.47;;
44606;SDS011;30315;46.072;14.474;2022-07-29T11:59:20;3.17;;;2.83;;
44606;SDS011;30315;46.072;14.474;2022-07-29T12:01:58;3.25;;;3.00;;
44606;SDS011;30315;46.072;14.474;2022-07-29T12:04:49;3.75;;;2.95;;
44606;SDS011;30315;46.072;14.474;2022-07-29T12:07:18;3.10;;;2.90;;
44606;SDS011;30315;46.072;14.474;2022-07-29T12:10:00;3.53;;;3.13;;
44606;SDS011;30315;46.072;14.474;2022-07-29T12:12:28;3.28;;;3.08;;
44606;SDS011;30315;46.072;14.474;2022-07-29T12:14:55;3.72;;;3.42;;
44606;SDS011;30315;46.072;14.474;2022-07-29T12:17:29;3.40;;;3.20;;
44606;SDS011;30315;46.072;14.474;2022-07-29T12:19:59;4.68;;;3.30;;
44606;SDS011;30315;46.072;14.474;2022-07-29T12:25:03;3.65;;;3.40;;
44606;SDS011;30315;46.072;14.474;2022-07-29T12:27:58;3.03;;;2.90;;
44606;SDS011;30315;46.072;14.474;2022-07-29T12:33:13;5.00;;;3.20;;
44606;SDS011;30315;46.072;14.474;2022-07-29T12:35:42;3.25;;;3.05;;
44606;SDS011;30315;46.072;14.474;2022-07-29T12:38:29;3.60;;;3.40;;
44606;SDS011;30315;46.072;14.474;2022-07-29T12:40:56;3.50;;;3.30;;
44606;SDS011;30315;46.072;14.474;2022-07-29T12:43:24;3.63;;;3.35;;
44606;SDS011;30315;46.072;14.474;2022-07-29T12:45:52;3.35;;;3.15;;
44606;SDS011;30315;46.072;14.474;2022-07-29T12:48:36;3.53;;;3.33;;
44606;SDS011;30315;46.072;14.474;2022-07-29T12:51:07;3.50;;;3.25;;
44606;SDS011;30315;46.072;14.474;2022-07-29T12:53:35;3.80;;;3.50;;
44606;SDS011;30315;46.072;14.474;2022-07-29T12:56:03;3.70;;;3.40;;
44606;SDS011;30315;46.072;14.474;2022-07-29T12:58:51;3.87;;;3.43;;
44606;SDS011;30315;46.072;14.474;2022-07-29T13:01:18;3.33;;;3.17;;
44606;SDS011;30315;46.072;14.474;2022-07-29T13:03:51;3.58;;;3.30;;
44606;SDS011;30315;46.072;14.474;2022-07-29T13:06:44;3.88;;;3.45;;
44606;SDS011;30315;46.072;14.474;2022-07-29T13:09:20;3.15;;;3.03;;
44606;SDS011;30315;46.072;14.474;2022-07-29T13:11:50;4.60;;;3.40;;
44606;SDS011;30315;46.072;14.474;2022-07-29T13:14:32;3.88;;;3.67;;
44606;SDS011;30315;46.072;14.474;2022-07-29T13:19:38;4.03;;;3.83;;
44606;SDS011;30315;46.072;14.474;2022-07-29T13:22:08;3.53;;;3.33;;
44606;SDS011;30315;46.072;14.474;2022-07-29T13:27:17;3.97;;;3.60;;
44606;SDS011;30315;46.072;14.474;2022-07-29T13:29:45;3.38;;;3.28;;
44606;SDS011;30315;46.072;14.474;2022-07-29T13:32:13;3.75;;;3.55;;
44606;SDS011;30315;46.072;14.474;2022-07-29T13:34:40;3.63;;;3.30;;
44606;SDS011;30315;46.072;14.474;2022-07-29T13:37:07;4.10;;;3.25;;
44606;SDS011;30315;46.072;14.474;2022-07-29T13:39:34;3.67;;;3.45;;
44606;SDS011;30315;46.072;14.474;2022-07-29T13:42:01;3.60;;;3.30;;
44606;SDS011;30315;46.072;14.474;2022-07-29T13:44:32;4.45;;;3.65;;
44606;SDS011;30315;46.072;14.474;2022-07-29T13:46:58;3.85;;;3.53;;
44606;SDS011;30315;46.072;14.474;2022-07-29T13:49:26;3.70;;;3.50;;
44606;SDS011;30315;46.072;14.474;2022-07-29T13:51:54;4.03;;;3.72;;
44606;SDS011;30315;46.072;14.474;2022-07-29T13:54:21;3.65;;;3.45;;
44606;SDS011;30315;46.072;14.474;2022-07-29T13:56:49;5.47;;;3.42;;
44606;SDS011;30315;46.072;14.474;2022-07-29T13:59:16;3.58;;;3.38;;
44606;SDS011;30315;46.072;14.474;2022-07-29T14:01:43;3.88;;;3.67;;
44606;SDS011;30315;46.072;14.474;2022-07-29T14:04:11;3.72;;;3.53;;
44606;SDS011;30315;46.072;14.474;2022-07-29T14:06:39;3.83;;;3.53;;
44606;SDS011;30315;46.072;14.474;2022-07-29T14:09:06;3.90;;;3.58;;
44606;SDS011;30315;46.072;14.474;2022-07-29T14:11:35;4.03;;;3.72;;
44606;SDS011;30315;46.072;14.474;2022-07-29T14:14:02;3.78;;;3.58;;
44606;SDS011;30315;46.072;14.474;2022-07-29T14:16:29;4.05;;;3.85;;
44606;SDS011;30315;46.072;14.474;2022-07-29T14:18:56;3.80;;;3.60;;
44606;SDS011;30315;46.072;14.474;2022-07-29T14:21:23;3.80;;;3.50;;
44606;SDS011;30315;46.072;14.474;2022-07-29T14:23:50;3.72;;;3.53;;
44606;SDS011;30315;46.072;14.474;2022-07-29T14:26:19;3.63;;;3.43;;
44606;SDS011;30315;46.072;14.474;2022-07-29T14:28:49;3.85;;;3.65;;
44606;SDS011;30315;46.072;14.474;2022-07-29T14:31:16;3.80;;;3.50;;
44606;SDS011;30315;46.072;14.474;2022-07-29T14:33:43;3.65;;;3.40;;
44606;SDS011;30315;46.072;14.474;2022-07-29T14:36:14;3.70;;;3.50;;
44606;SDS011;30315;46.072;14.474;2022-07-29T14:38:41;3.92;;;3.72;;
44606;SDS011;30315;46.072;14.474;2022-07-29T14:41:08;4.25;;;3.95;;
44606;SDS011;30315;46.072;14.474;2022-07-29T14:43:35;3.92;;;3.63;;
44606;SDS011;30315;46.072;14.474;2022-07-29T14:46:02;3.83;;;3.63;;
44606;SDS011;30315;46.072;14.474;2022-07-29T14:48:33;3.80;;;3.60;;
44606;SDS011;30315;46.072;14.474;2022-07-29T14:51:01;3.92;;;3.72;;
44606;SDS011;30315;46.072;14.474;2022-07-29T14:53:30;3.58;;;3.38;;
44606;SDS011;30315;46.072;14.474;2022-07-29T14:55:58;3.92;;;3.72;;
44606;SDS011;30315;46.072;14.474;2022-07-29T14:58:45;3.45;;;3.15;;
44606;SDS011;30315;46.072;14.474;2022-07-29T15:01:17;3.70;;;3.50;;
44606;SDS011;30315;46.072;14.474;2022-07-29T15:03:44;3.70;;;3.50;;
44606;SDS011;30315;46.072;14.474;2022-07-29T15:06:12;3.80;;;3.53;;
44606;SDS011;30315;46.072;14.474;2022-07-29T15:08:39;3.60;;;3.40;;
44606;SDS011;30315;46.072;14.474;2022-07-29T15:11:06;4.00;;;3.70;;
44606;SDS011;30315;46.072;14.474;2022-07-29T15:13:33;3.58;;;3.25;;
44606;SDS011;30315;46.072;14.474;2022-07-29T15:16:00;5.05;;;3.63;;
44606;SDS011;30315;46.072;14.474;2022-07-29T15:18:27;3.80;;;3.47;;
44606;SDS011;30315;46.072;14.474;2022-07-29T15:20:54;3.40;;;3.20;;
44606;SDS011;30315;46.072;14.474;2022-07-29T15:23:21;3.92;;;3.72;;
44606;SDS011;30315;46.072;14.474;2022-07-29T15:25:48;3.75;;;3.53;;
44606;SDS011;30315;46.072;14.474;2022-07-29T15:28:15;4.00;;;3.70;;
44606;SDS011;30315;46.072;14.474;2022-07-29T15:30:42;4.13;;;3.83;;
44606;SDS011;30315;46.072;14.474;2022-07-29T15:33:09;4.10;;;3.80;;
44606;SDS011;30315;46.072;14.474;2022-07-29T15:35:37;6.53;;;3.85;;
44606;SDS011;30315;46.072;14.474;2022-07-29T15:38:05;4.00;;;3.60;;
44606;SDS011;30315;46.072;14.474;2022-07-29T15:40:33;4.47;;;3.90;;
44606;SDS011;30315;46.072;14.474;2022-07-29T15:43:03;4.38;;;4.07;;
44606;SDS011;30315;46.072;14.474;2022-07-29T15:45:34;4.68;;;4.20;;
44606;SDS011;30315;46.072;14.474;2022-07-29T15:48:06;4.35;;;4.10;;
44606;SDS011;30315;46.072;14.474;2022-07-29T15:50:34;4.47;;;4.10;;
44606;SDS011;30315;46.072;14.474;2022-07-29T15:53:01;4.10;;;3.90;;
44606;SDS011;30315;46.072;14.474;2022-07-29T15:55:28;4.65;;;4.40;;